createdAt,value
2018-04-28T00:02:06.394Z,10.02
2018-04-28T00:04:33.234Z,9.96
2018-04-28T00:07:00.085Z,9.92
2018-04-28T00:09:26.934Z,9.86
2018-04-28T00:11:53.680Z,9.82
2018-04-28T00:14:20.528Z,9.81
2018-04-28T00:16:54.329Z,9.75
2018-04-28T00:19:22.821Z,9.71
2018-04-28T00:21:51.611Z,9.66
2018-04-28T00:24:18.351Z,9.64
2018-04-28T00:26:49.093Z,9.65
2018-04-28T00:29:17.681Z,9.64
2018-04-28T00:31:53.736Z,9.63
2018-04-28T00:34:20.493Z,9.61
2018-04-28T00:39:57.776Z,9.52
2018-04-28T00:42:32.706Z,9.48
2018-04-28T00:44:59.388Z,9.43
2018-04-28T00:47:26.085Z,9.39
2018-04-28T00:49:57.899Z,9.36
2018-04-28T00:52:27.472Z,9.32
2018-04-28T00:55:01.270Z,9.32
2018-04-28T00:57:34.775Z,9.32
2018-04-28T01:00:02.437Z,9.30
2018-04-28T01:02:29.101Z,9.31
2018-04-28T01:04:55.824Z,9.29
2018-04-28T01:07:24.629Z,9.29
2018-04-28T01:09:53.305Z,9.31
2018-04-28T01:12:20.057Z,9.32
2018-04-28T01:14:46.898Z,9.32
2018-04-28T01:17:13.648Z,9.33
2018-04-28T01:19:41.308Z,9.35
2018-04-28T01:22:08.064Z,9.37
2018-04-28T01:24:39.407Z,9.37
2018-04-28T01:27:25.701Z,9.35
2018-04-28T01:33:09.642Z,9.28
2018-04-28T01:38:31.884Z,9.21
2018-04-28T01:44:00.790Z,9.13
2018-04-28T01:46:41.247Z,9.08
2018-04-28T01:49:08.708Z,9.05
2018-04-28T01:51:37.500Z,9.01
2018-04-28T01:57:18.368Z,8.88
2018-04-28T01:59:59.346Z,8.82
2018-04-28T02:02:45.685Z,8.83
2018-04-28T02:05:16.475Z,8.83
2018-04-28T02:07:46.181Z,8.81
2018-04-28T02:10:13.747Z,8.78
2018-04-28T02:12:49.496Z,8.71
2018-04-28T02:18:30.271Z,8.52
2018-04-28T02:21:06.120Z,8.47
2018-04-28T02:23:35.936Z,8.39
2018-04-28T02:26:06.569Z,8.33
2018-04-28T02:31:31.511Z,8.19
2018-04-28T02:37:17.465Z,8.12
2018-04-28T02:39:46.873Z,8.10
2018-04-28T02:42:14.633Z,8.04
2018-04-28T02:44:42.207Z,8.04
2018-04-28T02:47:09.977Z,7.99
2018-04-28T02:53:02.100Z,7.88
2018-04-28T02:55:36.728Z,7.87
2018-04-28T02:58:05.421Z,7.81
2018-04-28T03:00:36.889Z,7.82
2018-04-28T03:03:04.533Z,7.80
2018-04-28T03:05:33.224Z,7.78
2018-04-28T03:08:08.972Z,7.75
2018-04-28T03:13:38.992Z,7.82
2018-04-28T03:16:10.486Z,7.83
2018-04-28T03:18:37.407Z,7.86
2018-04-28T03:21:04.148Z,7.91
2018-04-28T03:23:33.756Z,7.99
2018-04-28T03:26:04.194Z,8.12
2018-04-28T03:28:31.848Z,8.20
2018-04-28T03:31:03.721Z,8.28
2018-04-28T03:33:33.334Z,8.37
2018-04-28T03:39:01.041Z,8.55
2018-04-28T03:41:27.846Z,8.62
2018-04-28T03:43:58.475Z,8.69
2018-04-28T03:46:42.224Z,8.74
2018-04-28T03:49:17.853Z,8.82
2018-04-28T03:54:40.205Z,8.93
2018-04-28T04:00:18.419Z,9.03
2018-04-28T04:02:57.340Z,9.09
2018-04-28T04:05:30.130Z,9.13
2018-04-28T04:08:15.698Z,9.23
2018-04-28T04:11:08.130Z,9.30
2018-04-28T04:13:41.942Z,9.37
2018-04-28T04:19:10.931Z,9.50
2018-04-28T04:22:00.404Z,9.55
2018-04-28T04:24:40.037Z,9.62
2018-04-28T04:27:13.646Z,9.68
2018-04-28T04:29:52.257Z,9.73
2018-04-28T04:32:19.827Z,9.77
2018-04-28T04:37:48.128Z,9.87
2018-04-28T04:43:35.930Z,10.00
2018-04-28T04:46:14.866Z,10.06
2018-04-28T04:52:12.736Z,10.17
2018-04-28T05:01:06.387Z,10.48
2018-04-28T05:06:45.716Z,10.69
2018-04-28T05:12:32.419Z,10.91
2018-04-28T05:15:11.351Z,11.03
2018-04-28T05:17:43.977Z,11.14
2018-04-28T05:23:25.101Z,11.36
2018-04-28T05:26:02.696Z,11.51
2018-04-28T05:28:45.097Z,11.64
2018-04-28T05:34:22.907Z,11.86
2018-04-28T05:37:01.618Z,11.98
2018-04-28T05:39:40.539Z,12.10
2018-04-28T05:42:16.610Z,12.23
2018-04-28T05:44:54.502Z,12.39
2018-04-28T05:50:34.451Z,12.59
2018-04-28T05:53:15.014Z,12.65
2018-04-28T05:55:53.839Z,12.73
2018-04-28T05:58:32.657Z,12.81
2018-04-28T06:04:20.079Z,13.00
2018-04-28T06:06:47.539Z,13.07
2018-04-28T06:12:20.828Z,13.28
2018-04-28T06:14:59.661Z,13.36
2018-04-28T06:20:46.665Z,13.62
2018-04-28T06:23:13.312Z,13.76
2018-04-28T06:25:40.054Z,13.90
2018-04-28T06:28:06.904Z,14.02
2018-04-28T06:30:34.505Z,14.17
2018-04-28T06:33:01.216Z,14.27
2018-04-28T06:35:27.981Z,14.39
2018-04-28T06:37:54.713Z,14.52
2018-04-28T06:40:22.577Z,14.67
2018-04-28T06:42:49.317Z,14.80
2018-04-28T06:45:15.962Z,14.90
2018-04-28T06:47:42.711Z,15.02
2018-04-28T06:50:09.479Z,15.12
2018-04-28T06:52:36.204Z,15.26
2018-04-28T06:55:02.847Z,15.40
2018-04-28T06:57:29.623Z,15.53
2018-04-28T06:59:56.335Z,15.65
2018-04-28T07:02:23.078Z,15.77
2018-04-28T07:04:51.471Z,15.88
2018-04-28T07:07:19.226Z,15.99
2018-04-28T07:09:45.877Z,16.10
2018-04-28T07:12:12.739Z,16.22
2018-04-28T07:14:39.469Z,16.33
2018-04-28T07:17:06.215Z,16.54
2018-04-28T07:19:33.058Z,16.65
2018-04-28T07:21:59.912Z,16.78
2018-04-28T07:24:26.654Z,16.89
2018-04-28T07:26:53.505Z,16.95
2018-04-28T07:29:20.401Z,16.99
2018-04-28T07:31:47.123Z,17.13
2018-04-28T07:34:13.944Z,17.26
2018-04-28T07:36:40.686Z,17.38
2018-04-28T07:39:07.436Z,17.50
2018-04-28T07:41:35.528Z,17.55
2018-04-28T07:44:02.359Z,17.59
2018-04-28T07:46:29.113Z,17.70
2018-04-28T07:48:56.062Z,17.90
2018-04-28T07:51:22.902Z,17.92
2018-04-28T07:53:50.670Z,18.01
2018-04-28T07:56:17.622Z,18.11
2018-04-28T07:58:44.364Z,18.21
2018-04-28T08:01:12.234Z,18.30
2018-04-28T08:03:38.987Z,18.38
2018-04-28T08:06:05.728Z,18.45
2018-04-28T08:08:32.580Z,18.51
2018-04-28T08:10:59.527Z,18.64
2018-04-28T08:13:26.383Z,18.75
2018-04-28T08:15:53.220Z,18.90
2018-04-28T08:18:20.070Z,19.01
2018-04-28T08:20:46.861Z,19.14
2018-04-28T08:23:13.660Z,19.17
2018-04-28T08:25:40.522Z,19.25
2018-04-28T08:28:07.362Z,19.37
2018-04-28T08:30:34.206Z,19.46
2018-04-28T08:33:01.366Z,19.60
2018-04-28T08:35:28.220Z,19.64
2018-04-28T08:37:54.955Z,19.67
2018-04-28T08:40:23.850Z,19.74
2018-04-28T08:42:50.600Z,19.90
2018-04-28T08:45:17.342Z,19.92
2018-04-28T08:47:44.189Z,19.99
2018-04-28T08:50:10.934Z,20.22
2018-04-28T08:52:37.785Z,20.20
2018-04-28T08:55:04.633Z,20.27
2018-04-28T08:57:31.371Z,20.40
2018-04-28T09:00:10.405Z,20.36
2018-04-28T09:02:37.144Z,20.46
2018-04-28T09:05:03.887Z,20.44
2018-04-28T09:07:38.526Z,20.49
2018-04-28T09:10:05.258Z,20.57
2018-04-28T09:12:31.910Z,20.74
2018-04-28T09:14:58.752Z,20.83
2018-04-28T09:17:25.498Z,21.09
2018-04-28T09:19:52.238Z,21.27
2018-04-28T09:22:19.096Z,21.34
2018-04-28T09:24:45.852Z,21.37
2018-04-28T09:27:12.544Z,21.40
2018-04-28T09:29:39.634Z,21.52
2018-04-28T09:32:07.312Z,21.57
2018-04-28T09:34:34.048Z,21.57
2018-04-28T09:37:00.838Z,21.61
2018-04-28T09:39:27.540Z,21.61
2018-04-28T09:41:54.280Z,21.69
2018-04-28T09:44:21.033Z,21.72
2018-04-28T09:46:47.667Z,21.74
2018-04-28T09:49:14.419Z,21.82
2018-04-28T09:51:41.173Z,21.79
2018-04-28T09:54:08.224Z,21.85
2018-04-28T09:56:36.095Z,21.95
2018-04-28T09:59:02.939Z,22.02
2018-04-28T10:01:35.576Z,22.13
2018-04-28T10:04:02.473Z,22.22
2018-04-28T10:06:29.208Z,22.19
2018-04-28T10:08:55.958Z,22.31
2018-04-28T10:11:22.699Z,22.29
2018-04-28T10:13:49.549Z,22.43
2018-04-28T10:16:16.289Z,22.53
2018-04-28T10:18:43.040Z,22.54
2018-04-28T10:21:09.894Z,22.48
2018-04-28T10:23:36.633Z,22.76
2018-04-28T10:26:03.273Z,22.99
2018-04-28T10:28:30.123Z,23.08
2018-04-28T10:30:56.872Z,23.12
2018-04-28T10:33:23.618Z,23.19
2018-04-28T10:35:50.467Z,23.32
2018-04-28T10:38:17.209Z,23.30
2018-04-28T10:40:43.956Z,23.59
2018-04-28T10:43:10.907Z,23.58
2018-04-28T10:45:37.751Z,23.58
2018-04-28T10:48:04.502Z,23.66
2018-04-28T10:50:31.959Z,23.69
2018-04-28T10:52:58.708Z,23.80
2018-04-28T10:55:25.450Z,23.93
2018-04-28T10:57:52.376Z,23.97
2018-04-28T11:00:19.045Z,23.99
2018-04-28T11:02:45.693Z,24.02
2018-04-28T11:05:12.454Z,23.87
2018-04-28T11:07:39.178Z,24.11
2018-04-28T11:10:05.927Z,24.56
2018-04-28T11:12:32.709Z,24.96
2018-04-28T11:14:59.412Z,24.95
2018-04-28T11:17:26.158Z,24.89
2018-04-28T11:19:52.968Z,25.04
2018-04-28T11:22:19.651Z,25.44
2018-04-28T11:24:46.391Z,25.84
2018-04-28T11:27:13.244Z,25.98
2018-04-28T11:29:39.932Z,26.21
2018-04-28T11:32:06.738Z,26.33
2018-04-28T11:34:33.588Z,26.61
2018-04-28T11:37:00.237Z,26.67
2018-04-28T11:39:26.970Z,26.90
2018-04-28T11:41:54.849Z,26.64
2018-04-28T11:44:21.590Z,26.81
2018-04-28T11:46:48.230Z,26.92
2018-04-28T11:49:14.980Z,27.30
2018-04-28T11:51:41.623Z,27.31
2018-04-28T11:54:08.373Z,27.35
2018-04-28T11:56:35.227Z,27.62
2018-04-28T11:59:02.032Z,27.81
2018-04-28T12:01:28.707Z,27.77
2018-04-28T12:03:55.446Z,27.72
2018-04-28T12:06:22.294Z,27.70
2018-04-28T12:08:48.948Z,27.72
2018-04-28T12:11:15.688Z,27.85
2018-04-28T12:13:42.431Z,28.02
2018-04-28T12:16:09.280Z,28.32
2018-04-28T12:18:36.131Z,28.16
2018-04-28T12:21:02.978Z,28.40
2018-04-28T12:23:29.723Z,28.09
2018-04-28T12:25:56.673Z,28.20
2018-04-28T12:28:23.432Z,28.76
2018-04-28T12:30:50.065Z,28.83
2018-04-28T12:33:16.802Z,28.75
2018-04-28T12:35:43.554Z,28.76
2018-04-28T12:38:10.295Z,29.22
2018-04-28T12:40:36.987Z,29.58
2018-04-28T12:43:03.686Z,29.71
2018-04-28T12:45:30.428Z,29.82
2018-04-28T12:47:57.178Z,29.95
2018-04-28T12:50:23.969Z,30.03
2018-04-28T12:52:50.670Z,30.01
2018-04-28T12:55:17.409Z,30.14
2018-04-28T12:57:44.163Z,30.17
2018-04-28T13:00:10.904Z,30.57
2018-04-28T13:02:37.496Z,31.08
2018-04-28T13:05:04.082Z,31.07
2018-04-28T13:07:30.706Z,31.26
2018-04-28T13:09:57.475Z,31.15
2018-04-28T13:12:24.227Z,31.36
2018-04-28T13:14:50.867Z,31.75
2018-04-28T13:17:17.538Z,32.10
2018-04-28T13:19:44.150Z,32.45
2018-04-28T13:22:10.827Z,31.64
2018-04-28T13:24:37.641Z,31.59
2018-04-28T13:27:04.331Z,31.45
2018-04-28T13:29:31.031Z,31.35
2018-04-28T13:31:57.881Z,31.39
2018-04-28T13:34:24.621Z,31.02
2018-04-28T13:36:51.377Z,30.71
2018-04-28T13:39:18.116Z,31.14
2018-04-28T13:41:44.756Z,31.58
2018-04-28T13:44:11.512Z,31.67
2018-04-28T13:46:38.048Z,31.65
2018-04-28T13:49:04.790Z,31.24
2018-04-28T13:51:31.489Z,31.63
2018-04-28T13:53:58.179Z,31.37
2018-04-28T13:56:24.926Z,31.64
2018-04-28T13:58:52.691Z,32.05
2018-04-28T14:01:19.446Z,32.51
2018-04-28T14:03:46.181Z,32.80
2018-04-28T14:06:12.937Z,33.25
2018-04-28T14:08:39.674Z,33.02
2018-04-28T14:11:06.420Z,32.74
2018-04-28T14:13:33.169Z,33.08
2018-04-28T14:15:59.814Z,33.35
2018-04-28T14:18:26.597Z,33.53
2018-04-28T14:20:53.509Z,32.89
2018-04-28T14:23:20.253Z,33.08
2018-04-28T14:25:47.003Z,33.04
2018-04-28T14:28:13.745Z,32.63
2018-04-28T14:30:40.387Z,32.38
2018-04-28T14:33:07.131Z,32.00
2018-04-28T14:35:33.981Z,31.33
2018-04-28T14:38:00.624Z,31.48
2018-04-28T14:40:27.366Z,31.55
2018-04-28T14:42:54.121Z,31.55
2018-04-28T14:45:20.758Z,31.49
2018-04-28T14:47:47.526Z,31.01
2018-04-28T14:50:14.350Z,30.18
2018-04-28T14:52:41.022Z,30.07
2018-04-28T14:55:07.739Z,29.83
2018-04-28T14:57:34.480Z,29.37
2018-04-28T15:00:01.233Z,28.97
2018-04-28T15:02:27.870Z,28.81
2018-04-28T15:04:54.622Z,28.67
2018-04-28T15:07:21.264Z,28.55
2018-04-28T15:09:48.025Z,28.47
2018-04-28T15:12:14.755Z,28.30
2018-04-28T15:14:41.397Z,28.33
2018-04-28T15:17:08.149Z,28.37
2018-04-28T15:19:34.887Z,28.27
2018-04-28T15:22:01.645Z,28.05
2018-04-28T15:24:28.378Z,27.82
2018-04-28T15:26:55.232Z,27.60
2018-04-28T15:29:21.970Z,27.30
2018-04-28T15:31:48.713Z,27.05
2018-04-28T15:34:15.464Z,26.97
2018-04-28T15:36:42.205Z,26.94
2018-04-28T15:39:08.954Z,26.90
2018-04-28T15:41:35.699Z,26.96
2018-04-28T15:44:02.547Z,26.88
2018-04-28T15:46:29.188Z,26.85
2018-04-28T15:48:55.935Z,26.80
2018-04-28T15:51:22.679Z,26.71
2018-04-28T15:53:49.429Z,26.71
2018-04-28T15:56:16.171Z,26.65
2018-04-28T15:58:42.810Z,26.64
2018-04-28T16:01:09.461Z,26.66
2018-04-28T16:03:36.250Z,26.74
2018-04-28T16:06:02.951Z,26.89
2018-04-28T16:08:29.706Z,27.03
2018-04-28T16:10:56.442Z,27.20
2018-04-28T16:13:23.087Z,27.29
2018-04-28T16:15:49.737Z,27.19
2018-04-28T16:18:16.478Z,26.79
2018-04-28T16:20:43.218Z,26.37
2018-04-28T16:23:09.781Z,25.99
2018-04-28T16:25:36.512Z,25.65
2018-04-28T16:28:03.251Z,25.41
2018-04-28T16:30:29.998Z,25.36
2018-04-28T16:32:56.743Z,25.28
2018-04-28T16:35:23.381Z,25.16
2018-04-28T16:37:50.072Z,24.99
2018-04-28T16:40:16.776Z,24.77
2018-04-28T16:42:43.726Z,24.64
2018-04-28T16:45:10.365Z,24.53
2018-04-28T16:47:37.107Z,24.36
2018-04-28T16:50:03.855Z,24.19
2018-04-28T16:52:30.499Z,24.04
2018-04-28T16:54:57.247Z,23.91
2018-04-28T16:57:23.892Z,23.77
2018-04-28T16:59:50.532Z,23.61
2018-04-28T17:02:17.383Z,23.45
2018-04-28T17:04:44.063Z,23.24
2018-04-28T17:07:10.775Z,23.07
2018-04-28T17:09:37.516Z,23.00
2018-04-28T17:12:04.266Z,22.88
2018-04-28T17:14:31.003Z,22.77
2018-04-28T17:16:57.629Z,22.67
2018-04-28T17:19:24.295Z,22.54
2018-04-28T17:21:51.138Z,22.42
2018-04-28T17:24:17.890Z,22.30
2018-04-28T17:26:44.532Z,22.24
2018-04-28T17:29:11.182Z,22.14
2018-04-28T17:31:38.023Z,21.99
2018-04-28T17:34:04.661Z,21.89
2018-04-28T17:36:31.417Z,21.87
2018-04-28T17:38:58.262Z,21.82
2018-04-28T17:41:25.004Z,21.76
2018-04-28T17:43:51.646Z,21.69
2018-04-28T17:46:18.497Z,21.59
2018-04-28T17:48:45.247Z,21.53
2018-04-28T17:51:11.991Z,21.44
2018-04-28T17:53:38.726Z,21.34
2018-04-28T17:56:05.367Z,21.18
2018-04-28T17:58:32.119Z,21.02
2018-04-28T18:00:58.862Z,20.83
2018-04-28T18:03:25.611Z,20.72
2018-04-28T18:05:52.351Z,20.66
2018-04-28T18:08:19.101Z,20.58
2018-04-28T18:10:46.153Z,20.47
2018-04-28T18:13:13.116Z,20.30
2018-04-28T18:15:39.845Z,20.14
2018-04-28T18:18:06.595Z,20.00
2018-04-28T18:20:33.343Z,19.85
2018-04-28T18:23:00.026Z,19.71
2018-04-28T18:25:26.734Z,19.58
2018-04-28T18:27:53.472Z,19.43
2018-04-28T18:30:20.335Z,19.24
2018-04-28T18:32:47.073Z,19.10
2018-04-28T18:35:13.715Z,18.97
2018-04-28T18:37:40.450Z,18.86
2018-04-28T18:40:07.414Z,18.73
2018-04-28T18:42:34.164Z,18.64
2018-04-28T18:45:00.796Z,18.49
2018-04-28T18:47:27.437Z,18.41
2018-04-28T18:49:54.183Z,18.37
2018-04-28T18:52:20.928Z,18.33
2018-04-28T18:54:47.618Z,18.28
2018-04-28T18:57:14.320Z,18.21
2018-04-28T18:59:41.071Z,18.09
2018-04-28T19:02:07.599Z,17.96
2018-04-28T19:04:34.250Z,17.86
2018-04-28T19:07:00.991Z,17.79
2018-04-28T19:09:27.637Z,17.67
2018-04-28T19:11:54.286Z,17.58
2018-04-28T19:14:20.982Z,17.47
2018-04-28T19:16:47.682Z,17.39
2018-04-28T19:19:14.346Z,17.30
2018-04-28T19:21:41.058Z,17.21
2018-04-28T19:24:08.657Z,17.12
2018-04-28T19:26:35.266Z,16.94
2018-04-28T19:29:02.107Z,16.79
2018-04-28T19:31:28.797Z,16.65
2018-04-28T19:33:55.400Z,16.54
2018-04-28T19:36:22.142Z,16.52
2018-04-28T19:38:48.891Z,16.50
2018-04-28T19:41:15.533Z,16.50
2018-04-28T19:43:42.385Z,16.52
2018-04-28T19:46:09.225Z,16.54
2018-04-28T19:48:35.982Z,16.56
2018-04-28T19:51:02.827Z,16.56
2018-04-28T19:53:29.567Z,16.61
2018-04-28T19:55:56.320Z,16.63
2018-04-28T19:58:23.056Z,16.65
2018-04-28T20:00:49.695Z,16.60
2018-04-28T20:03:16.451Z,16.56
2018-04-28T20:05:43.236Z,16.49
2018-04-28T20:08:09.943Z,16.41
2018-04-28T20:10:36.682Z,16.35
2018-04-28T20:13:03.433Z,16.33
2018-04-28T20:15:30.075Z,16.30
2018-04-28T20:17:56.817Z,16.30
2018-04-28T20:20:23.664Z,16.33
2018-04-28T20:23:02.384Z,16.28
2018-04-28T20:25:29.139Z,16.25
2018-04-28T20:27:55.767Z,16.28
2018-04-28T20:30:22.520Z,16.28
2018-04-28T20:32:49.263Z,16.23
2018-04-28T20:35:15.907Z,16.26
2018-04-28T20:37:42.552Z,16.22
2018-04-28T20:40:10.011Z,16.19
2018-04-28T20:42:36.654Z,16.13
2018-04-28T20:45:03.417Z,16.04
2018-04-28T20:47:30.255Z,16.01
2018-04-28T20:49:56.992Z,15.98
2018-04-28T20:52:23.657Z,15.94
2018-04-28T20:54:50.414Z,15.95
